sensor_id;sensor_type;location;lat;lon;timestamp;P1;durP1;ratioP1;P2;durP2;ratioP2
28022;SDS011;67403;50.104;8.758;2023-07-22T00:01:55;10.45;;;6.35;;
28022;SDS011;67403;50.104;8.758;2023-07-22T00:04:22;7.55;;;6.25;;
28022;SDS011;67403;50.104;8.758;2023-07-22T00:06:50;9.30;;;6.15;;
28022;SDS011;67403;50.104;8.758;2023-07-22T00:09:18;9.20;;;6.55;;
28022;SDS011;67403;50.104;8.758;2023-07-22T00:11:45;8.73;;;6.72;;
28022;SDS011;67403;50.104;8.758;2023-07-22T00:14:12;8.85;;;6.68;;
28022;SDS011;67403;50.104;8.758;2023-07-22T00:16:40;9.25;;;6.32;;
28022;SDS011;67403;50.104;8.758;2023-07-22T00:19:07;7.82;;;6.10;;
28022;SDS011;67403;50.104;8.758;2023-07-22T00:21:35;8.75;;;5.85;;
28022;SDS011;67403;50.104;8.758;2023-07-22T00:24:03;13.52;;;7.07;;
28022;SDS011;67403;50.104;8.758;2023-07-22T00:26:31;9.20;;;6.30;;
28022;SDS011;67403;50.104;8.758;2023-07-22T00:28:58;9.52;;;7.30;;
28022;SDS011;67403;50.104;8.758;2023-07-22T00:31:26;10.13;;;6.93;;
28022;SDS011;67403;50.104;8.758;2023-07-22T00:33:53;10.63;;;6.78;;
28022;SDS011;67403;50.104;8.758;2023-07-22T00:36:20;9.38;;;6.68;;
28022;SDS011;67403;50.104;8.758;2023-07-22T00:38:47;10.50;;;7.20;;
28022;SDS011;67403;50.104;8.758;2023-07-22T00:41:16;13.48;;;7.30;;
28022;SDS011;67403;50.104;8.758;2023-07-22T00:43:43;11.88;;;7.22;;
28022;SDS011;67403;50.104;8.758;2023-07-22T00:46:10;10.93;;;7.18;;
28022;SDS011;67403;50.104;8.758;2023-07-22T00:48:38;13.10;;;7.68;;
28022;SDS011;67403;50.104;8.758;2023-07-22T00:51:05;10.80;;;7.13;;
28022;SDS011;67403;50.104;8.758;2023-07-22T00:53:32;17.10;;;7.95;;
28022;SDS011;67403;50.104;8.758;2023-07-22T00:56:00;15.10;;;7.68;;
28022;SDS011;67403;50.104;8.758;2023-07-22T00:58:28;10.23;;;7.30;;
28022;SDS011;67403;50.104;8.758;2023-07-22T01:00:55;10.65;;;7.38;;
28022;SDS011;67403;50.104;8.758;2023-07-22T01:03:23;10.93;;;7.35;;
28022;SDS011;67403;50.104;8.758;2023-07-22T01:05:51;12.75;;;8.07;;
28022;SDS011;67403;50.104;8.758;2023-07-22T01:08:20;11.50;;;7.75;;
28022;SDS011;67403;50.104;8.758;2023-07-22T01:10:47;13.65;;;7.47;;
28022;SDS011;67403;50.104;8.758;2023-07-22T01:13:14;10.02;;;6.65;;
28022;SDS011;67403;50.104;8.758;2023-07-22T01:15:43;10.32;;;6.85;;
28022;SDS011;67403;50.104;8.758;2023-07-22T01:18:10;8.90;;;7.13;;
28022;SDS011;67403;50.104;8.758;2023-07-22T01:20:38;13.20;;;7.32;;
28022;SDS011;67403;50.104;8.758;2023-07-22T01:23:06;10.10;;;7.22;;
28022;SDS011;67403;50.104;8.758;2023-07-22T01:25:34;9.30;;;6.60;;
28022;SDS011;67403;50.104;8.758;2023-07-22T01:28:01;11.32;;;7.65;;
28022;SDS011;67403;50.104;8.758;2023-07-22T01:30:28;11.25;;;7.10;;
28022;SDS011;67403;50.104;8.758;2023-07-22T01:32:56;10.57;;;7.57;;
28022;SDS011;67403;50.104;8.758;2023-07-22T01:35:23;9.40;;;7.03;;
28022;SDS011;67403;50.104;8.758;2023-07-22T01:37:51;13.82;;;7.53;;
28022;SDS011;67403;50.104;8.758;2023-07-22T01:40:20;10.85;;;7.65;;
28022;SDS011;67403;50.104;8.758;2023-07-22T01:42:48;13.05;;;7.32;;
28022;SDS011;67403;50.104;8.758;2023-07-22T01:45:16;9.10;;;7.07;;
28022;SDS011;67403;50.104;8.758;2023-07-22T01:47:43;8.27;;;6.45;;
28022;SDS011;67403;50.104;8.758;2023-07-22T01:50:10;10.70;;;7.45;;
28022;SDS011;67403;50.104;8.758;2023-07-22T01:52:38;12.60;;;7.75;;
28022;SDS011;67403;50.104;8.758;2023-07-22T01:55:06;14.55;;;7.25;;
28022;SDS011;67403;50.104;8.758;2023-07-22T01:57:37;12.75;;;7.78;;
28022;SDS011;67403;50.104;8.758;2023-07-22T02:00:06;9.98;;;7.40;;
28022;SDS011;67403;50.104;8.758;2023-07-22T02:02:36;10.63;;;7.78;;
28022;SDS011;67403;50.104;8.758;2023-07-22T02:05:03;11.55;;;7.85;;
28022;SDS011;67403;50.104;8.758;2023-07-22T02:07:31;13.45;;;8.02;;
28022;SDS011;67403;50.104;8.758;2023-07-22T02:09:59;10.80;;;7.40;;
28022;SDS011;67403;50.104;8.758;2023-07-22T02:12:26;12.88;;;7.95;;
28022;SDS011;67403;50.104;8.758;2023-07-22T02:14:54;13.75;;;7.88;;
28022;SDS011;67403;50.104;8.758;2023-07-22T02:17:22;13.05;;;8.57;;
28022;SDS011;67403;50.104;8.758;2023-07-22T02:19:49;9.65;;;7.40;;
28022;SDS011;67403;50.104;8.758;2023-07-22T02:22:17;11.68;;;8.15;;
28022;SDS011;67403;50.104;8.758;2023-07-22T02:24:44;13.23;;;7.78;;
28022;SDS011;67403;50.104;8.758;2023-07-22T02:27:11;14.70;;;8.50;;
28022;SDS011;67403;50.104;8.758;2023-07-22T02:29:39;14.55;;;8.48;;
28022;SDS011;67403;50.104;8.758;2023-07-22T02:32:08;15.63;;;7.95;;
28022;SDS011;67403;50.104;8.758;2023-07-22T02:34:35;14.73;;;7.45;;
28022;SDS011;67403;50.104;8.758;2023-07-22T02:37:03;12.80;;;8.20;;
28022;SDS011;67403;50.104;8.758;2023-07-22T02:39:31;13.05;;;8.32;;
28022;SDS011;67403;50.104;8.758;2023-07-22T02:41:58;10.07;;;7.82;;
28022;SDS011;67403;50.104;8.758;2023-07-22T02:44:25;12.55;;;8.18;;
28022;SDS011;67403;50.104;8.758;2023-07-22T02:46:53;11.75;;;8.25;;
28022;SDS011;67403;50.104;8.758;2023-07-22T02:49:21;12.18;;;8.63;;
28022;SDS011;67403;50.104;8.758;2023-07-22T02:51:49;12.93;;;8.85;;
28022;SDS011;67403;50.104;8.758;2023-07-22T02:54:16;12.07;;;8.15;;
28022;SDS011;67403;50.104;8.758;2023-07-22T02:56:43;12.02;;;7.95;;
28022;SDS011;67403;50.104;8.758;2023-07-22T02:59:11;13.52;;;9.07;;
28022;SDS011;67403;50.104;8.758;2023-07-22T03:01:38;12.40;;;8.05;;
28022;SDS011;67403;50.104;8.758;2023-07-22T03:04:05;11.68;;;7.82;;
28022;SDS011;67403;50.104;8.758;2023-07-22T03:06:34;16.67;;;8.95;;
28022;SDS011;67403;50.104;8.758;2023-07-22T03:09:01;14.88;;;7.82;;
28022;SDS011;67403;50.104;8.758;2023-07-22T03:11:30;14.30;;;8.43;;
28022;SDS011;67403;50.104;8.758;2023-07-22T03:13:57;10.90;;;7.97;;
28022;SDS011;67403;50.104;8.758;2023-07-22T03:16:25;10.70;;;7.78;;
28022;SDS011;67403;50.104;8.758;2023-07-22T03:18:52;12.07;;;7.85;;
28022;SDS011;67403;50.104;8.758;2023-07-22T03:21:19;12.70;;;8.40;;
28022;SDS011;67403;50.104;8.758;2023-07-22T03:23:48;12.15;;;8.02;;
28022;SDS011;67403;50.104;8.758;2023-07-22T03:26:16;12.65;;;8.20;;
28022;SDS011;67403;50.104;8.758;2023-07-22T03:28:43;10.75;;;6.95;;
28022;SDS011;67403;50.104;8.758;2023-07-22T03:31:10;11.82;;;7.95;;
28022;SDS011;67403;50.104;8.758;2023-07-22T03:33:38;10.45;;;7.90;;
28022;SDS011;67403;50.104;8.758;2023-07-22T03:36:06;11.32;;;8.50;;
28022;SDS011;67403;50.104;8.758;2023-07-22T03:38:34;12.48;;;8.68;;
28022;SDS011;67403;50.104;8.758;2023-07-22T03:41:02;13.88;;;8.20;;
28022;SDS011;67403;50.104;8.758;2023-07-22T03:43:29;12.88;;;8.40;;
28022;SDS011;67403;50.104;8.758;2023-07-22T03:45:57;12.40;;;7.60;;
28022;SDS011;67403;50.104;8.758;2023-07-22T03:48:24;10.68;;;7.78;;
28022;SDS011;67403;50.104;8.758;2023-07-22T03:50:51;13.00;;;8.82;;
28022;SDS011;67403;50.104;8.758;2023-07-22T03:53:18;13.27;;;9.73;;
28022;SDS011;67403;50.104;8.758;2023-07-22T03:55:46;14.27;;;9.23;;
28022;SDS011;67403;50.104;8.758;2023-07-22T03:58:14;10.68;;;7.80;;
28022;SDS011;67403;50.104;8.758;2023-07-22T04:00:42;21.65;;;7.68;;
28022;SDS011;67403;50.104;8.758;2023-07-22T04:03:09;15.07;;;8.90;;
28022;SDS011;67403;50.104;8.758;2023-07-22T04:05:36;14.95;;;9.35;;
28022;SDS011;67403;50.104;8.758;2023-07-22T04:08:04;11.60;;;7.47;;
28022;SDS011;67403;50.104;8.758;2023-07-22T04:10:31;12.43;;;7.80;;
28022;SDS011;67403;50.104;8.758;2023-07-22T04:12:59;13.68;;;8.25;;
28022;SDS011;67403;50.104;8.758;2023-07-22T04:15:27;10.40;;;8.02;;
28022;SDS011;67403;50.104;8.758;2023-07-22T04:18:14;10.77;;;7.13;;
28022;SDS011;67403;50.104;8.758;2023-07-22T04:20:42;12.13;;;7.45;;
28022;SDS011;67403;50.104;8.758;2023-07-22T04:23:09;11.35;;;7.90;;
28022;SDS011;67403;50.104;8.758;2023-07-22T04:25:38;14.18;;;8.20;;
28022;SDS011;67403;50.104;8.758;2023-07-22T04:28:06;10.30;;;7.55;;
28022;SDS011;67403;50.104;8.758;2023-07-22T04:30:35;9.88;;;7.45;;
28022;SDS011;67403;50.104;8.758;2023-07-22T04:33:02;11.63;;;7.32;;
28022;SDS011;67403;50.104;8.758;2023-07-22T04:35:31;11.52;;;7.65;;
28022;SDS011;67403;50.104;8.758;2023-07-22T04:37:58;13.10;;;7.93;;
28022;SDS011;67403;50.104;8.758;2023-07-22T04:40:25;10.48;;;7.05;;
28022;SDS011;67403;50.104;8.758;2023-07-22T04:42:53;10.73;;;7.00;;
28022;SDS011;67403;50.104;8.758;2023-07-22T04:45:20;9.52;;;7.82;;
28022;SDS011;67403;50.104;8.758;2023-07-22T04:47:50;10.32;;;6.65;;
28022;SDS011;67403;50.104;8.758;2023-07-22T04:50:17;10.15;;;7.07;;
28022;SDS011;67403;50.104;8.758;2023-07-22T04:52:46;14.50;;;7.25;;
28022;SDS011;67403;50.104;8.758;2023-07-22T04:55:13;11.07;;;6.43;;
28022;SDS011;67403;50.104;8.758;2023-07-22T04:57:41;11.98;;;7.07;;
28022;SDS011;67403;50.104;8.758;2023-07-22T05:00:10;10.70;;;7.17;;
28022;SDS011;67403;50.104;8.758;2023-07-22T05:02:40;15.95;;;7.50;;
28022;SDS011;67403;50.104;8.758;2023-07-22T05:05:09;10.38;;;7.35;;
28022;SDS011;67403;50.104;8.758;2023-07-22T05:07:36;11.85;;;7.28;;
28022;SDS011;67403;50.104;8.758;2023-07-22T05:10:03;10.15;;;6.40;;
28022;SDS011;67403;50.104;8.758;2023-07-22T05:12:32;12.27;;;7.50;;
28022;SDS011;67403;50.104;8.758;2023-07-22T05:14:59;11.05;;;8.00;;
28022;SDS011;67403;50.104;8.758;2023-07-22T05:17:26;10.30;;;7.82;;
28022;SDS011;67403;50.104;8.758;2023-07-22T05:19:54;11.65;;;7.68;;
28022;SDS011;67403;50.104;8.758;2023-07-22T05:22:23;10.27;;;7.78;;
28022;SDS011;67403;50.104;8.758;2023-07-22T05:24:50;10.95;;;6.63;;
28022;SDS011;67403;50.104;8.758;2023-07-22T05:27:17;10.13;;;6.95;;
28022;SDS011;67403;50.104;8.758;2023-07-22T05:29:45;8.43;;;6.40;;
28022;SDS011;67403;50.104;8.758;2023-07-22T05:32:12;10.32;;;7.13;;
28022;SDS011;67403;50.104;8.758;2023-07-22T05:34:40;9.52;;;7.05;;
28022;SDS011;67403;50.104;8.758;2023-07-22T05:37:07;9.18;;;6.25;;
28022;SDS011;67403;50.104;8.758;2023-07-22T05:39:36;8.43;;;6.30;;
28022;SDS011;67403;50.104;8.758;2023-07-22T05:42:03;8.75;;;6.45;;
28022;SDS011;67403;50.104;8.758;2023-07-22T05:44:30;9.40;;;7.00;;
28022;SDS011;67403;50.104;8.758;2023-07-22T05:46:58;11.98;;;5.80;;
28022;SDS011;67403;50.104;8.758;2023-07-22T05:49:25;11.35;;;6.38;;
28022;SDS011;67403;50.104;8.758;2023-07-22T05:51:52;9.40;;;6.50;;
28022;SDS011;67403;50.104;8.758;2023-07-22T05:54:20;8.02;;;5.93;;
28022;SDS011;67403;50.104;8.758;2023-07-22T05:56:49;8.95;;;6.80;;
28022;SDS011;67403;50.104;8.758;2023-07-22T05:59:17;11.53;;;7.00;;
28022;SDS011;67403;50.104;8.758;2023-07-22T06:01:44;11.02;;;7.18;;
28022;SDS011;67403;50.104;8.758;2023-07-22T06:04:11;29.15;;;17.30;;
28022;SDS011;67403;50.104;8.758;2023-07-22T06:06:38;10.73;;;6.68;;
28022;SDS011;67403;50.104;8.758;2023-07-22T06:09:06;8.52;;;6.20;;
28022;SDS011;67403;50.104;8.758;2023-07-22T06:11:33;7.55;;;5.70;;
28022;SDS011;67403;50.104;8.758;2023-07-22T06:14:02;7.03;;;5.72;;
28022;SDS011;67403;50.104;8.758;2023-07-22T06:16:29;8.30;;;5.55;;
28022;SDS011;67403;50.104;8.758;2023-07-22T06:18:57;12.68;;;6.03;;
28022;SDS011;67403;50.104;8.758;2023-07-22T06:21:24;8.40;;;5.97;;
28022;SDS011;67403;50.104;8.758;2023-07-22T06:23:51;9.27;;;5.93;;
28022;SDS011;67403;50.104;8.758;2023-07-22T06:26:18;10.73;;;6.80;;
28022;SDS011;67403;50.104;8.758;2023-07-22T06:28:46;9.13;;;5.93;;
28022;SDS011;67403;50.104;8.758;2023-07-22T06:31:14;11.52;;;6.35;;
28022;SDS011;67403;50.104;8.758;2023-07-22T06:33:43;9.40;;;6.93;;
28022;SDS011;67403;50.104;8.758;2023-07-22T06:36:10;9.77;;;7.03;;
28022;SDS011;67403;50.104;8.758;2023-07-22T06:38:38;13.88;;;8.68;;
28022;SDS011;67403;50.104;8.758;2023-07-22T06:41:05;11.70;;;6.75;;
28022;SDS011;67403;50.104;8.758;2023-07-22T06:43:32;13.63;;;8.30;;
28022;SDS011;67403;50.104;8.758;2023-07-22T06:45:59;9.07;;;6.47;;
28022;SDS011;67403;50.104;8.758;2023-07-22T06:48:28;11.45;;;7.28;;
28022;SDS011;67403;50.104;8.758;2023-07-22T06:50:55;9.05;;;6.45;;
28022;SDS011;67403;50.104;8.758;2023-07-22T06:53:22;10.02;;;6.07;;
28022;SDS011;67403;50.104;8.758;2023-07-22T06:55:50;8.65;;;5.57;;
28022;SDS011;67403;50.104;8.758;2023-07-22T06:58:17;10.02;;;6.43;;
28022;SDS011;67403;50.104;8.758;2023-07-22T07:00:44;6.45;;;5.30;;
28022;SDS011;67403;50.104;8.758;2023-07-22T07:03:11;8.65;;;6.03;;
28022;SDS011;67403;50.104;8.758;2023-07-22T07:05:40;9.23;;;5.88;;
28022;SDS011;67403;50.104;8.758;2023-07-22T07:08:07;8.93;;;6.20;;
28022;SDS011;67403;50.104;8.758;2023-07-22T07:10:37;9.27;;;6.03;;
28022;SDS011;67403;50.104;8.758;2023-07-22T07:13:04;8.82;;;5.68;;
28022;SDS011;67403;50.104;8.758;2023-07-22T07:15:32;9.05;;;5.47;;
28022;SDS011;67403;50.104;8.758;2023-07-22T07:17:59;9.13;;;5.93;;
28022;SDS011;67403;50.104;8.758;2023-07-22T07:20:26;8.75;;;5.82;;
28022;SDS011;67403;50.104;8.758;2023-07-22T07:22:55;6.95;;;5.55;;
28022;SDS011;67403;50.104;8.758;2023-07-22T07:25:22;8.65;;;5.55;;
28022;SDS011;67403;50.104;8.758;2023-07-22T07:27:49;8.48;;;5.78;;
28022;SDS011;67403;50.104;8.758;2023-07-22T07:30:16;9.15;;;5.53;;
28022;SDS011;67403;50.104;8.758;2023-07-22T07:32:44;9.45;;;6.20;;
28022;SDS011;67403;50.104;8.758;2023-07-22T07:35:11;8.07;;;5.68;;
28022;SDS011;67403;50.104;8.758;2023-07-22T07:37:38;8.93;;;5.95;;
28022;SDS011;67403;50.104;8.758;2023-07-22T07:40:08;11.45;;;5.75;;
28022;SDS011;67403;50.104;8.758;2023-07-22T07:42:35;7.38;;;5.43;;
28022;SDS011;67403;50.104;8.758;2023-07-22T07:45:03;6.68;;;5.38;;
28022;SDS011;67403;50.104;8.758;2023-07-22T07:47:30;8.30;;;5.50;;
28022;SDS011;67403;50.104;8.758;2023-07-22T07:49:57;8.13;;;4.82;;
28022;SDS011;67403;50.104;8.758;2023-07-22T07:52:24;9.68;;;5.95;;
28022;SDS011;67403;50.104;8.758;2023-07-22T07:54:52;8.05;;;5.55;;
28022;SDS011;67403;50.104;8.758;2023-07-22T07:57:20;8.32;;;5.13;;
28022;SDS011;67403;50.104;8.758;2023-07-22T07:59:47;8.18;;;5.70;;
28022;SDS011;67403;50.104;8.758;2023-07-22T08:02:15;6.25;;;4.97;;
28022;SDS011;67403;50.104;8.758;2023-07-22T08:04:42;8.27;;;5.55;;
28022;SDS011;67403;50.104;8.758;2023-07-22T08:07:09;6.15;;;4.85;;
28022;SDS011;67403;50.104;8.758;2023-07-22T08:09:36;8.20;;;5.45;;
28022;SDS011;67403;50.104;8.758;2023-07-22T08:12:04;7.28;;;5.30;;
28022;SDS011;67403;50.104;8.758;2023-07-22T08:14:32;7.65;;;5.65;;
28022;SDS011;67403;50.104;8.758;2023-07-22T08:17:01;6.50;;;5.20;;
28022;SDS011;67403;50.104;8.758;2023-07-22T08:19:29;6.90;;;5.43;;
28022;SDS011;67403;50.104;8.758;2023-07-22T08:21:56;7.78;;;5.40;;
28022;SDS011;67403;50.104;8.758;2023-07-22T08:24:23;8.98;;;5.45;;
28022;SDS011;67403;50.104;8.758;2023-07-22T08:26:50;5.72;;;5.13;;
28022;SDS011;67403;50.104;8.758;2023-07-22T08:29:18;8.45;;;6.00;;
28022;SDS011;67403;50.104;8.758;2023-07-22T08:31:46;9.02;;;5.47;;
28022;SDS011;67403;50.104;8.758;2023-07-22T08:34:13;8.38;;;5.05;;
28022;SDS011;67403;50.104;8.758;2023-07-22T08:36:41;6.35;;;4.47;;
28022;SDS011;67403;50.104;8.758;2023-07-22T08:39:09;7.28;;;4.60;;
28022;SDS011;67403;50.104;8.758;2023-07-22T08:41:37;7.97;;;4.68;;
28022;SDS011;67403;50.104;8.758;2023-07-22T08:44:05;6.50;;;5.13;;
28022;SDS011;67403;50.104;8.758;2023-07-22T08:46:33;6.55;;;5.13;;
28022;SDS011;67403;50.104;8.758;2023-07-22T08:49:02;7.50;;;5.22;;
28022;SDS011;67403;50.104;8.758;2023-07-22T08:51:31;5.78;;;4.80;;
28022;SDS011;67403;50.104;8.758;2023-07-22T08:53:58;7.85;;;4.85;;
28022;SDS011;67403;50.104;8.758;2023-07-22T08:56:26;4.72;;;4.00;;
28022;SDS011;67403;50.104;8.758;2023-07-22T08:58:55;5.93;;;4.25;;
28022;SDS011;67403;50.104;8.758;2023-07-22T09:01:22;6.88;;;4.85;;
28022;SDS011;67403;50.104;8.758;2023-07-22T09:03:50;5.07;;;4.57;;
28022;SDS011;67403;50.104;8.758;2023-07-22T09:06:21;6.97;;;4.55;;
28022;SDS011;67403;50.104;8.758;2023-07-22T09:08:48;5.57;;;4.25;;
28022;SDS011;67403;50.104;8.758;2023-07-22T09:11:15;5.45;;;4.03;;
28022;SDS011;67403;50.104;8.758;2023-07-22T09:13:43;5.03;;;4.20;;
28022;SDS011;67403;50.104;8.758;2023-07-22T09:16:11;5.65;;;4.05;;
28022;SDS011;67403;50.104;8.758;2023-07-22T09:18:39;5.53;;;3.88;;
28022;SDS011;67403;50.104;8.758;2023-07-22T09:21:06;4.63;;;3.40;;
28022;SDS011;67403;50.104;8.758;2023-07-22T09:23:35;5.70;;;3.78;;
28022;SDS011;67403;50.104;8.758;2023-07-22T09:26:09;8.27;;;3.28;;
28022;SDS011;67403;50.104;8.758;2023-07-22T09:28:47;6.93;;;4.20;;
28022;SDS011;67403;50.104;8.758;2023-07-22T09:31:14;6.88;;;3.88;;
28022;SDS011;67403;50.104;8.758;2023-07-22T09:33:41;4.63;;;3.85;;
28022;SDS011;67403;50.104;8.758;2023-07-22T09:36:09;6.50;;;3.60;;
28022;SDS011;67403;50.104;8.758;2023-07-22T09:38:38;5.30;;;3.30;;
28022;SDS011;67403;50.104;8.758;2023-07-22T09:41:06;4.68;;;2.92;;
28022;SDS011;67403;50.104;8.758;2023-07-22T09:43:36;4.97;;;3.22;;
28022;SDS011;67403;50.104;8.758;2023-07-22T09:48:32;6.18;;;4.20;;
28022;SDS011;67403;50.104;8.758;2023-07-22T09:51:05;4.63;;;3.47;;
28022;SDS011;67403;50.104;8.758;2023-07-22T09:53:33;7.40;;;3.33;;
28022;SDS011;67403;50.104;8.758;2023-07-22T09:56:04;5.75;;;3.83;;
28022;SDS011;67403;50.104;8.758;2023-07-22T09:58:31;4.65;;;3.65;;
28022;SDS011;67403;50.104;8.758;2023-07-22T10:00:59;5.20;;;3.63;;
28022;SDS011;67403;50.104;8.758;2023-07-22T10:03:28;5.43;;;3.45;;
28022;SDS011;67403;50.104;8.758;2023-07-22T10:05:56;4.47;;;3.50;;
28022;SDS011;67403;50.104;8.758;2023-07-22T10:08:25;3.30;;;2.83;;
28022;SDS011;67403;50.104;8.758;2023-07-22T10:10:53;3.95;;;3.30;;
28022;SDS011;67403;50.104;8.758;2023-07-22T10:13:23;4.57;;;3.60;;
28022;SDS011;67403;50.104;8.758;2023-07-22T10:15:51;6.28;;;3.53;;
28022;SDS011;67403;50.104;8.758;2023-07-22T10:18:19;5.35;;;3.72;;
28022;SDS011;67403;50.104;8.758;2023-07-22T10:20:48;6.97;;;3.50;;
28022;SDS011;67403;50.104;8.758;2023-07-22T10:23:16;5.93;;;3.50;;
28022;SDS011;67403;50.104;8.758;2023-07-22T10:25:44;4.50;;;3.00;;
28022;SDS011;67403;50.104;8.758;2023-07-22T10:28:13;5.72;;;4.07;;
28022;SDS011;67403;50.104;8.758;2023-07-22T10:30:41;3.85;;;3.42;;
28022;SDS011;67403;50.104;8.758;2023-07-22T10:33:09;3.60;;;3.17;;
28022;SDS011;67403;50.104;8.758;2023-07-22T10:35:40;5.30;;;3.03;;
28022;SDS011;67403;50.104;8.758;2023-07-22T10:38:08;5.15;;;3.50;;
28022;SDS011;67403;50.104;8.758;2023-07-22T10:40:44;3.90;;;3.33;;
28022;SDS011;67403;50.104;8.758;2023-07-22T10:43:12;3.75;;;3.28;;
28022;SDS011;67403;50.104;8.758;2023-07-22T10:45:40;6.88;;;3.97;;
28022;SDS011;67403;50.104;8.758;2023-07-22T10:48:09;5.60;;;3.92;;
28022;SDS011;67403;50.104;8.758;2023-07-22T10:50:38;5.63;;;3.97;;
28022;SDS011;67403;50.104;8.758;2023-07-22T10:53:06;5.07;;;3.20;;
28022;SDS011;67403;50.104;8.758;2023-07-22T10:55:33;4.47;;;3.70;;
28022;SDS011;67403;50.104;8.758;2023-07-22T10:58:03;5.07;;;3.45;;
28022;SDS011;67403;50.104;8.758;2023-07-22T11:00:31;4.38;;;3.22;;
28022;SDS011;67403;50.104;8.758;2023-07-22T11:03:13;3.95;;;3.40;;
28022;SDS011;67403;50.104;8.758;2023-07-22T11:05:47;4.00;;;3.20;;
28022;SDS011;67403;50.104;8.758;2023-07-22T11:08:15;4.32;;;3.13;;
28022;SDS011;67403;50.104;8.758;2023-07-22T11:10:52;3.85;;;3.45;;
28022;SDS011;67403;50.104;8.758;2023-07-22T11:13:26;6.65;;;3.85;;
28022;SDS011;67403;50.104;8.758;2023-07-22T11:15:57;4.60;;;3.22;;
28022;SDS011;67403;50.104;8.758;2023-07-22T11:18:36;6.55;;;3.75;;
28022;SDS011;67403;50.104;8.758;2023-07-22T11:21:06;4.30;;;3.37;;
28022;SDS011;67403;50.104;8.758;2023-07-22T11:23:34;5.05;;;3.20;;
28022;SDS011;67403;50.104;8.758;2023-07-22T11:26:01;4.43;;;3.05;;
28022;SDS011;67403;50.104;8.758;2023-07-22T11:28:29;4.43;;;3.30;;
28022;SDS011;67403;50.104;8.758;2023-07-22T11:30:57;5.82;;;3.85;;
28022;SDS011;67403;50.104;8.758;2023-07-22T11:33:24;4.57;;;3.63;;
28022;SDS011;67403;50.104;8.758;2023-07-22T11:35:52;6.18;;;3.95;;
28022;SDS011;67403;50.104;8.758;2023-07-22T11:38:20;6.65;;;3.70;;
28022;SDS011;67403;50.104;8.758;2023-07-22T11:40:47;6.25;;;3.50;;
28022;SDS011;67403;50.104;8.758;2023-07-22T11:43:14;4.47;;;3.30;;
28022;SDS011;67403;50.104;8.758;2023-07-22T11:45:42;5.45;;;3.00;;
28022;SDS011;67403;50.104;8.758;2023-07-22T11:48:11;4.45;;;2.72;;
28022;SDS011;67403;50.104;8.758;2023-07-22T11:50:39;5.18;;;3.28;;
28022;SDS011;67403;50.104;8.758;2023-07-22T11:53:07;8.88;;;4.88;;
28022;SDS011;67403;50.104;8.758;2023-07-22T11:55:35;4.43;;;3.20;;
28022;SDS011;67403;50.104;8.758;2023-07-22T11:58:02;4.25;;;3.45;;
28022;SDS011;67403;50.104;8.758;2023-07-22T12:00:32;4.82;;;3.60;;
28022;SDS011;67403;50.104;8.758;2023-07-22T12:03:04;5.25;;;3.38;;
28022;SDS011;67403;50.104;8.758;2023-07-22T12:05:34;5.13;;;3.95;;
28022;SDS011;67403;50.104;8.758;2023-07-22T12:08:03;4.45;;;3.83;;
28022;SDS011;67403;50.104;8.758;2023-07-22T12:10:33;6.68;;;3.05;;
28022;SDS011;67403;50.104;8.758;2023-07-22T12:13:00;4.75;;;3.10;;
28022;SDS011;67403;50.104;8.758;2023-07-22T12:15:28;4.00;;;3.42;;
28022;SDS011;67403;50.104;8.758;2023-07-22T12:17:56;5.10;;;3.08;;
28022;SDS011;67403;50.104;8.758;2023-07-22T12:20:24;4.93;;;3.70;;
28022;SDS011;67403;50.104;8.758;2023-07-22T12:22:52;4.65;;;3.65;;
28022;SDS011;67403;50.104;8.758;2023-07-22T12:25:19;5.15;;;3.80;;
28022;SDS011;67403;50.104;8.758;2023-07-22T12:27:47;6.15;;;3.83;;
28022;SDS011;67403;50.104;8.758;2023-07-22T12:30:15;7.63;;;4.03;;
28022;SDS011;67403;50.104;8.758;2023-07-22T12:32:43;4.97;;;3.67;;
28022;SDS011;67403;50.104;8.758;2023-07-22T12:35:10;4.68;;;3.60;;
28022;SDS011;67403;50.104;8.758;2023-07-22T12:37:39;9.27;;;3.80;;
28022;SDS011;67403;50.104;8.758;2023-07-22T12:40:06;4.10;;;3.17;;
28022;SDS011;67403;50.104;8.758;2023-07-22T12:42:33;4.05;;;3.35;;
28022;SDS011;67403;50.104;8.758;2023-07-22T12:45:02;3.78;;;3.13;;
28022;SDS011;67403;50.104;8.758;2023-07-22T12:47:30;4.28;;;3.40;;
28022;SDS011;67403;50.104;8.758;2023-07-22T12:49:57;6.30;;;3.63;;
28022;SDS011;67403;50.104;8.758;2023-07-22T12:52:24;3.97;;;2.83;;
28022;SDS011;67403;50.104;8.758;2023-07-22T12:54:52;5.28;;;3.03;;
28022;SDS011;67403;50.104;8.758;2023-07-22T12:57:19;3.88;;;3.15;;
28022;SDS011;67403;50.104;8.758;2023-07-22T12:59:47;5.90;;;3.47;;
28022;SDS011;67403;50.104;8.758;2023-07-22T13:02:15;5.13;;;3.80;;
28022;SDS011;67403;50.104;8.758;2023-07-22T13:04:42;4.93;;;3.40;;
28022;SDS011;67403;50.104;8.758;2023-07-22T13:07:10;6.53;;;3.50;;
28022;SDS011;67403;50.104;8.758;2023-07-22T13:09:37;5.13;;;3.78;;
28022;SDS011;67403;50.104;8.758;2023-07-22T13:12:05;8.48;;;5.07;;
28022;SDS011;67403;50.104;8.758;2023-07-22T13:14:33;5.72;;;3.65;;
28022;SDS011;67403;50.104;8.758;2023-07-22T13:17:00;5.07;;;4.18;;
28022;SDS011;67403;50.104;8.758;2023-07-22T13:19:28;11.70;;;6.25;;
28022;SDS011;67403;50.104;8.758;2023-07-22T13:21:56;5.55;;;3.75;;
28022;SDS011;67403;50.104;8.758;2023-07-22T13:24:23;4.55;;;3.35;;
28022;SDS011;67403;50.104;8.758;2023-07-22T13:26:50;7.63;;;5.20;;
28022;SDS011;67403;50.104;8.758;2023-07-22T13:29:17;6.45;;;4.60;;
28022;SDS011;67403;50.104;8.758;2023-07-22T13:31:45;6.50;;;4.20;;
28022;SDS011;67403;50.104;8.758;2023-07-22T13:34:12;11.15;;;5.35;;
28022;SDS011;67403;50.104;8.758;2023-07-22T13:36:41;5.90;;;3.85;;
28022;SDS011;67403;50.104;8.758;2023-07-22T13:39:09;6.68;;;5.05;;
28022;SDS011;67403;50.104;8.758;2023-07-22T13:41:36;6.40;;;5.32;;
28022;SDS011;67403;50.104;8.758;2023-07-22T13:44:04;3.97;;;3.33;;
28022;SDS011;67403;50.104;8.758;2023-07-22T13:46:31;20.67;;;14.13;;
28022;SDS011;67403;50.104;8.758;2023-07-22T13:48:58;11.73;;;9.50;;
28022;SDS011;67403;50.104;8.758;2023-07-22T13:51:26;11.55;;;6.65;;
28022;SDS011;67403;50.104;8.758;2023-07-22T13:53:54;4.70;;;3.67;;
28022;SDS011;67403;50.104;8.758;2023-07-22T13:56:23;7.22;;;5.65;;
28022;SDS011;67403;50.104;8.758;2023-07-22T13:58:50;12.98;;;7.75;;
28022;SDS011;67403;50.104;8.758;2023-07-22T14:01:18;19.67;;;12.82;;
28022;SDS011;67403;50.104;8.758;2023-07-22T14:03:45;5.70;;;4.30;;
28022;SDS011;67403;50.104;8.758;2023-07-22T14:06:13;6.70;;;3.83;;
28022;SDS011;67403;50.104;8.758;2023-07-22T14:08:40;15.15;;;12.32;;
28022;SDS011;67403;50.104;8.758;2023-07-22T14:11:09;6.22;;;4.05;;
28022;SDS011;67403;50.104;8.758;2023-07-22T14:13:36;25.83;;;15.57;;
28022;SDS011;67403;50.104;8.758;2023-07-22T14:16:03;4.70;;;3.85;;
28022;SDS011;67403;50.104;8.758;2023-07-22T14:18:31;10.07;;;6.13;;
28022;SDS011;67403;50.104;8.758;2023-07-22T14:20:58;4.88;;;3.38;;
28022;SDS011;67403;50.104;8.758;2023-07-22T14:23:25;8.55;;;6.70;;
28022;SDS011;67403;50.104;8.758;2023-07-22T14:25:53;4.00;;;3.58;;
28022;SDS011;67403;50.104;8.758;2023-07-22T14:28:21;6.05;;;3.25;;
28022;SDS011;67403;50.104;8.758;2023-07-22T14:30:49;5.43;;;3.40;;
28022;SDS011;67403;50.104;8.758;2023-07-22T14:33:16;5.75;;;3.80;;
28022;SDS011;67403;50.104;8.758;2023-07-22T14:35:43;5.80;;;4.45;;
28022;SDS011;67403;50.104;8.758;2023-07-22T14:38:11;4.65;;;3.40;;
28022;SDS011;67403;50.104;8.758;2023-07-22T14:40:38;4.00;;;2.88;;
28022;SDS011;67403;50.104;8.758;2023-07-22T14:43:05;4.45;;;3.15;;
28022;SDS011;67403;50.104;8.758;2023-07-22T14:45:34;4.40;;;3.33;;
28022;SDS011;67403;50.104;8.758;2023-07-22T14:48:01;4.38;;;3.40;;
28022;SDS011;67403;50.104;8.758;2023-07-22T14:50:28;8.60;;;5.90;;